sensor_id;sensor_type;location;lat;lon;timestamp;pressure;altitude;pressure_sealevel;temperature;humidity
19890;BME280;10107;51.198;6.824;2023-06-04T00:01:24;-21678.38;;;13.75;46.03
19890;BME280;10107;51.198;6.824;2023-06-04T00:05:27;-21676.38;;;13.68;46.26
19890;BME280;10107;51.198;6.824;2023-06-04T00:09:30;-21673.88;;;13.58;47.21
19890;BME280;10107;51.198;6.824;2023-06-04T00:13:32;-21672.28;;;13.52;47.47
19890;BME280;10107;51.198;6.824;2023-06-04T00:17:34;-21671.91;;;13.50;46.36
19890;BME280;10107;51.198;6.824;2023-06-04T00:21:37;-21672.28;;;13.52;46.53
19890;BME280;10107;51.198;6.824;2023-06-04T00:25:41;-21673.22;;;13.55;46.89
19890;BME280;10107;51.198;6.824;2023-06-04T00:29:43;-21672.69;;;13.53;46.43
19890;BME280;10107;51.198;6.824;2023-06-04T00:33:45;-21671.50;;;13.49;46.70
19890;BME280;10107;51.198;6.824;2023-06-04T00:37:48;-21669.00;;;13.39;47.57
19890;BME280;10107;51.198;6.824;2023-06-04T00:41:52;-21665.16;;;13.24;48.85
19890;BME280;10107;51.198;6.824;2023-06-04T00:45:54;-21660.81;;;13.07;49.66
19890;BME280;10107;51.198;6.824;2023-06-04T00:49:56;-21657.66;;;12.95;49.98
19890;BME280;10107;51.198;6.824;2023-06-04T00:54:02;-21657.38;;;12.94;50.29
19890;BME280;10107;51.198;6.824;2023-06-04T00:58:10;-21658.03;;;12.96;49.37
19890;BME280;10107;51.198;6.824;2023-06-04T01:02:18;-21657.53;;;12.94;49.00
19890;BME280;10107;51.198;6.824;2023-06-04T01:06:31;-21656.84;;;12.92;48.85
19890;BME280;10107;51.198;6.824;2023-06-04T01:10:37;-21658.44;;;12.98;47.70
19890;BME280;10107;51.198;6.824;2023-06-04T01:14:41;-21657.91;;;12.96;48.30
19890;BME280;10107;51.198;6.824;2023-06-04T01:18:44;-21655.81;;;12.87;49.08
19890;BME280;10107;51.198;6.824;2023-06-04T01:22:55;-21653.44;;;12.78;50.17
19890;BME280;10107;51.198;6.824;2023-06-04T01:27:01;-21650.00;;;12.65;51.38
19890;BME280;10107;51.198;6.824;2023-06-04T01:31:06;-21647.34;;;12.55;52.01
19890;BME280;10107;51.198;6.824;2023-06-04T01:35:13;-21646.31;;;12.51;51.30
19890;BME280;10107;51.198;6.824;2023-06-04T01:39:15;-21646.69;;;12.52;51.66
19890;BME280;10107;51.198;6.824;2023-06-04T01:43:17;-21646.81;;;12.53;50.80
19890;BME280;10107;51.198;6.824;2023-06-04T01:47:20;-21645.63;;;12.48;51.78
19890;BME280;10107;51.198;6.824;2023-06-04T01:51:22;-21644.19;;;12.42;51.48
19890;BME280;10107;51.198;6.824;2023-06-04T01:55:28;-21642.22;;;12.35;52.69
19890;BME280;10107;51.198;6.824;2023-06-04T01:59:35;-21638.63;;;12.21;54.46
19890;BME280;10107;51.198;6.824;2023-06-04T02:03:38;-21635.47;;;12.08;55.10
19890;BME280;10107;51.198;6.824;2023-06-04T02:07:42;-21634.53;;;12.05;55.44
19890;BME280;10107;51.198;6.824;2023-06-04T02:11:45;-21635.88;;;12.10;54.77
19890;BME280;10107;51.198;6.824;2023-06-04T02:15:47;-21634.94;;;12.06;55.15
19890;BME280;10107;51.198;6.824;2023-06-04T02:19:51;-21636.41;;;12.12;53.47
19890;BME280;10107;51.198;6.824;2023-06-04T02:23:53;-21637.72;;;12.17;54.41
19890;BME280;10107;51.198;6.824;2023-06-04T02:27:56;-21638.78;;;12.21;53.67
19890;BME280;10107;51.198;6.824;2023-06-04T02:31:59;-21641.16;;;12.31;53.43
19890;BME280;10107;51.198;6.824;2023-06-04T02:36:04;-21641.53;;;12.32;53.29
19890;BME280;10107;51.198;6.824;2023-06-04T02:40:08;-21641.69;;;12.33;53.30
19890;BME280;10107;51.198;6.824;2023-06-04T02:44:10;-21641.69;;;12.33;54.05
19890;BME280;10107;51.198;6.824;2023-06-04T02:48:13;-21641.69;;;12.33;53.10
19890;BME280;10107;51.198;6.824;2023-06-04T02:52:17;-21638.91;;;12.22;53.92
19890;BME280;10107;51.198;6.824;2023-06-04T02:56:20;-21637.59;;;12.17;53.87
19890;BME280;10107;51.198;6.824;2023-06-04T03:00:23;-21638.91;;;12.22;53.50
19890;BME280;10107;51.198;6.824;2023-06-04T03:04:24;-21639.69;;;12.25;53.18
19890;BME280;10107;51.198;6.824;2023-06-04T03:08:36;-21638.38;;;12.20;52.93
19890;BME280;10107;51.198;6.824;2023-06-04T03:12:37;-21636.94;;;12.14;53.60
19890;BME280;10107;51.198;6.824;2023-06-04T03:16:39;-21635.19;;;12.07;54.52
19890;BME280;10107;51.198;6.824;2023-06-04T03:20:41;-21633.75;;;12.02;54.97
19890;BME280;10107;51.198;6.824;2023-06-04T03:24:44;-21632.81;;;11.98;54.10
19890;BME280;10107;51.198;6.824;2023-06-04T03:28:47;-21632.69;;;11.98;54.72
19890;BME280;10107;51.198;6.824;2023-06-04T03:32:54;-21633.34;;;12.00;54.54
19890;BME280;10107;51.198;6.824;2023-06-04T03:36:58;-21632.97;;;11.99;55.30
19890;BME280;10107;51.198;6.824;2023-06-04T03:41:02;-21633.09;;;11.99;55.22
19890;BME280;10107;51.198;6.824;2023-06-04T03:45:04;-21632.44;;;11.97;55.81
19890;BME280;10107;51.198;6.824;2023-06-04T03:49:08;-21632.44;;;11.97;55.42
19890;BME280;10107;51.198;6.824;2023-06-04T03:53:11;-21633.63;;;12.01;55.40
19890;BME280;10107;51.198;6.824;2023-06-04T03:57:15;-21634.94;;;12.06;55.57
19890;BME280;10107;51.198;6.824;2023-06-04T04:01:17;-21636.41;;;12.12;54.85
19890;BME280;10107;51.198;6.824;2023-06-04T04:05:19;-21639.16;;;12.23;54.48
19890;BME280;10107;51.198;6.824;2023-06-04T04:09:23;-21641.03;;;12.30;53.99
19890;BME280;10107;51.198;6.824;2023-06-04T04:13:26;-21642.88;;;12.37;55.36
19890;BME280;10107;51.198;6.824;2023-06-04T04:17:29;-21644.44;;;12.43;55.58
19890;BME280;10107;51.198;6.824;2023-06-04T04:21:30;-21644.97;;;12.45;56.04
19890;BME280;10107;51.198;6.824;2023-06-04T04:25:32;-21646.16;;;12.50;57.35
19890;BME280;10107;51.198;6.824;2023-06-04T04:29:39;-21648.41;;;12.59;58.47
19890;BME280;10107;51.198;6.824;2023-06-04T04:33:45;-21652.38;;;12.74;57.59
19890;BME280;10107;51.198;6.824;2023-06-04T04:37:48;-21657.13;;;12.93;57.98
19890;BME280;10107;51.198;6.824;2023-06-04T04:41:52;-21662.41;;;13.13;57.59
19890;BME280;10107;51.198;6.824;2023-06-04T04:45:55;-21671.50;;;13.49;55.78
19890;BME280;10107;51.198;6.824;2023-06-04T04:49:57;-21685.22;;;14.02;50.78
19890;BME280;10107;51.198;6.824;2023-06-04T04:54:00;-21702.47;;;14.69;47.47
19890;BME280;10107;51.198;6.824;2023-06-04T04:58:02;-21713.50;;;15.12;45.88
19890;BME280;10107;51.198;6.824;2023-06-04T05:02:06;-21723.63;;;15.52;45.59
19890;BME280;10107;51.198;6.824;2023-06-04T05:06:09;-21741.88;;;16.23;43.46
19890;BME280;10107;51.198;6.824;2023-06-04T05:10:10;-21782.91;;;17.84;40.15
19890;BME280;10107;51.198;6.824;2023-06-04T05:14:13;-21816.78;;;19.16;37.46
19890;BME280;10107;51.198;6.824;2023-06-04T05:18:18;-21856.16;;;20.71;34.50
19890;BME280;10107;51.198;6.824;2023-06-04T05:22:22;-21886.44;;;21.91;31.87
19890;BME280;10107;51.198;6.824;2023-06-04T05:26:26;-21904.63;;;22.63;29.96
19890;BME280;10107;51.198;6.824;2023-06-04T05:30:32;-21916.94;;;23.11;29.63
19890;BME280;10107;51.198;6.824;2023-06-04T05:34:35;-21932.09;;;23.71;28.62
19890;BME280;10107;51.198;6.824;2023-06-04T05:38:37;-21948.03;;;24.35;27.31
19890;BME280;10107;51.198;6.824;2023-06-04T05:42:43;-21971.81;;;25.29;26.38
19890;BME280;10107;51.198;6.824;2023-06-04T05:46:44;-21993.34;;;26.15;26.03
19890;BME280;10107;51.198;6.824;2023-06-04T05:50:49;-22020.50;;;27.23;24.72
19890;BME280;10107;51.198;6.824;2023-06-04T05:54:52;-22048.25;;;28.34;23.50
19890;BME280;10107;51.198;6.824;2023-06-04T05:58:55;-22061.09;;;28.85;22.35
19890;BME280;10107;51.198;6.824;2023-06-04T06:03:00;-22075.81;;;29.44;22.12
19890;BME280;10107;51.198;6.824;2023-06-04T06:07:14;-22092.19;;;30.10;21.35
19890;BME280;10107;51.198;6.824;2023-06-04T06:11:16;-22113.03;;;30.93;20.36
19890;BME280;10107;51.198;6.824;2023-06-04T06:15:18;-22143.38;;;32.15;19.83
19890;BME280;10107;51.198;6.824;2023-06-04T06:19:22;-22165.88;;;33.06;18.88
19890;BME280;10107;51.198;6.824;2023-06-04T06:23:25;-22172.09;;;33.31;18.09
19890;BME280;10107;51.198;6.824;2023-06-04T06:27:27;-22189.50;;;34.02;17.82
19890;BME280;10107;51.198;6.824;2023-06-04T06:31:29;-22197.72;;;34.35;17.47
19890;BME280;10107;51.198;6.824;2023-06-04T06:35:31;-22177.94;;;33.55;17.08
19890;BME280;10107;51.198;6.824;2023-06-04T06:39:34;-22188.72;;;33.99;16.68
19890;BME280;10107;51.198;6.824;2023-06-04T06:43:35;-22207.50;;;34.75;16.45
19890;BME280;10107;51.198;6.824;2023-06-04T06:47:37;-22215.34;;;35.06;16.66
19890;BME280;10107;51.198;6.824;2023-06-04T06:51:39;-22246.03;;;36.31;15.74
19890;BME280;10107;51.198;6.824;2023-06-04T06:55:42;-22274.75;;;37.48;15.13
19890;BME280;10107;51.198;6.824;2023-06-04T06:59:44;-22257.63;;;36.78;14.80
19890;BME280;10107;51.198;6.824;2023-06-04T07:03:45;-22243.50;;;36.21;15.23
19890;BME280;10107;51.198;6.824;2023-06-04T07:07:47;-22264.69;;;37.07;14.90
19890;BME280;10107;51.198;6.824;2023-06-04T07:11:50;-22288.22;;;38.03;14.84
19890;BME280;10107;51.198;6.824;2023-06-04T07:15:53;-22297.13;;;38.39;14.24
19890;BME280;10107;51.198;6.824;2023-06-04T07:19:54;-22296.13;;;38.35;13.77
19890;BME280;10107;51.198;6.824;2023-06-04T07:23:56;-22309.69;;;38.91;13.16
19890;BME280;10107;51.198;6.824;2023-06-04T07:27:59;-22333.63;;;39.89;13.27
19890;BME280;10107;51.198;6.824;2023-06-04T07:32:04;-22344.00;;;40.31;12.91
19890;BME280;10107;51.198;6.824;2023-06-04T07:36:06;-22367.59;;;41.28;12.50
19890;BME280;10107;51.198;6.824;2023-06-04T07:40:08;-22372.22;;;41.47;11.79
19890;BME280;10107;51.198;6.824;2023-06-04T07:44:11;-22356.13;;;40.81;11.68
19890;BME280;10107;51.198;6.824;2023-06-04T07:48:13;-22359.50;;;40.95;11.90
19890;BME280;10107;51.198;6.824;2023-06-04T07:52:14;-22347.50;;;40.46;12.09
19890;BME280;10107;51.198;6.824;2023-06-04T07:56:16;-22357.00;;;40.85;12.36
19890;BME280;10107;51.198;6.824;2023-06-04T08:00:19;-22337.63;;;40.05;13.01
19890;BME280;10107;51.198;6.824;2023-06-04T08:04:21;-22292.88;;;38.22;14.17
19890;BME280;10107;51.198;6.824;2023-06-04T08:08:23;-22251.84;;;36.55;15.19
19890;BME280;10107;51.198;6.824;2023-06-04T08:12:24;-22214.94;;;35.05;16.20
19890;BME280;10107;51.198;6.824;2023-06-04T08:16:28;-22209.88;;;34.84;17.53
19890;BME280;10107;51.198;6.824;2023-06-04T08:20:29;-22197.34;;;34.34;16.68
19890;BME280;10107;51.198;6.824;2023-06-04T08:24:31;-22201.66;;;34.51;15.71
19890;BME280;10107;51.198;6.824;2023-06-04T08:28:33;-22191.91;;;34.11;15.47
19890;BME280;10107;51.198;6.824;2023-06-04T08:32:36;-22224.69;;;35.44;15.08
19890;BME280;10107;51.198;6.824;2023-06-04T08:36:37;-22223.44;;;35.39;15.64
19890;BME280;10107;51.198;6.824;2023-06-04T08:40:39;-22210.03;;;34.85;15.06
19890;BME280;10107;51.198;6.824;2023-06-04T08:44:42;-22213.94;;;35.01;15.55
19890;BME280;10107;51.198;6.824;2023-06-04T08:48:46;-22212.16;;;34.94;15.73
19890;BME280;10107;51.198;6.824;2023-06-04T08:52:51;-22227.09;;;35.54;15.32
19890;BME280;10107;51.198;6.824;2023-06-04T08:56:55;-22228.22;;;35.59;15.15
19890;BME280;10107;51.198;6.824;2023-06-04T09:00:57;-22215.97;;;35.09;15.11
19890;BME280;10107;51.198;6.824;2023-06-04T09:05:01;-22204.69;;;34.63;15.07
19890;BME280;10107;51.198;6.824;2023-06-04T09:09:05;-22195.97;;;34.28;15.47
19890;BME280;10107;51.198;6.824;2023-06-04T09:13:09;-22196.59;;;34.30;15.96
19890;BME280;10107;51.198;6.824;2023-06-04T09:17:12;-22217.09;;;35.14;15.14
19890;BME280;10107;51.198;6.824;2023-06-04T09:21:16;-22212.41;;;34.95;15.16
19890;BME280;10107;51.198;6.824;2023-06-04T09:25:21;-22219.88;;;35.25;15.11
19890;BME280;10107;51.198;6.824;2023-06-04T09:29:23;-22222.28;;;35.35;15.52
19890;BME280;10107;51.198;6.824;2023-06-04T09:33:24;-22226.84;;;35.53;14.70
19890;BME280;10107;51.198;6.824;2023-06-04T09:37:28;-22216.34;;;35.10;14.73
19890;BME280;10107;51.198;6.824;2023-06-04T09:41:30;-22226.34;;;35.51;15.88
19890;BME280;10107;51.198;6.824;2023-06-04T09:45:33;-22239.47;;;36.04;14.82
19890;BME280;10107;51.198;6.824;2023-06-04T09:49:40;-22242.88;;;36.18;14.44
19890;BME280;10107;51.198;6.824;2023-06-04T09:53:53;-22238.47;;;36.00;14.70
19890;BME280;10107;51.198;6.824;2023-06-04T09:57:55;-22204.94;;;34.64;15.79
19890;BME280;10107;51.198;6.824;2023-06-04T10:01:56;-22206.59;;;34.71;16.68
19890;BME280;10107;51.198;6.824;2023-06-04T10:06:01;-22219.00;;;35.21;15.46
19890;BME280;10107;51.198;6.824;2023-06-04T10:10:05;-22220.00;;;35.25;14.91
19890;BME280;10107;51.198;6.824;2023-06-04T10:14:14;-22208.00;;;34.77;14.89
19890;BME280;10107;51.198;6.824;2023-06-04T10:18:19;-22206.84;;;34.72;15.36
19890;BME280;10107;51.198;6.824;2023-06-04T10:22:21;-22201.53;;;34.50;16.57
19890;BME280;10107;51.198;6.824;2023-06-04T10:26:25;-22201.28;;;34.49;15.58
19890;BME280;10107;51.198;6.824;2023-06-04T10:30:28;-22193.81;;;34.19;15.75
19890;BME280;10107;51.198;6.824;2023-06-04T10:34:31;-22186.19;;;33.88;15.91
19890;BME280;10107;51.198;6.824;2023-06-04T10:38:33;-22195.69;;;34.27;16.21
19890;BME280;10107;51.198;6.824;2023-06-04T10:42:42;-22202.53;;;34.55;16.38
19890;BME280;10107;51.198;6.824;2023-06-04T10:46:45;-22208.88;;;34.80;16.24
19890;BME280;10107;51.198;6.824;2023-06-04T10:50:48;-22202.28;;;34.54;16.50
19890;BME280;10107;51.198;6.824;2023-06-04T10:54:50;-22206.97;;;34.72;16.03
19890;BME280;10107;51.198;6.824;2023-06-04T10:58:55;-22192.91;;;34.16;16.28
19890;BME280;10107;51.198;6.824;2023-06-04T11:02:58;-22198.09;;;34.37;16.44
19890;BME280;10107;51.198;6.824;2023-06-04T11:07:02;-22204.81;;;34.64;15.54
19890;BME280;10107;51.198;6.824;2023-06-04T11:11:10;-22207.22;;;34.74;16.23
19890;BME280;10107;51.198;6.824;2023-06-04T11:15:16;-22208.50;;;34.79;16.42
19890;BME280;10107;51.198;6.824;2023-06-04T11:19:18;-22196.59;;;34.30;17.33
19890;BME280;10107;51.198;6.824;2023-06-04T11:23:20;-22219.63;;;35.24;16.52
19890;BME280;10107;51.198;6.824;2023-06-04T11:27:22;-22230.00;;;35.66;15.70
19890;BME280;10107;51.198;6.824;2023-06-04T11:31:25;-22222.28;;;35.35;15.13
19890;BME280;10107;51.198;6.824;2023-06-04T11:35:27;-22214.69;;;35.04;16.11
19890;BME280;10107;51.198;6.824;2023-06-04T11:39:35;-22212.66;;;34.96;15.30
19890;BME280;10107;51.198;6.824;2023-06-04T11:43:39;-22194.94;;;34.24;16.35
19890;BME280;10107;51.198;6.824;2023-06-04T11:47:46;-22186.06;;;33.88;16.81
19890;BME280;10107;51.198;6.824;2023-06-04T11:51:49;-22186.31;;;33.89;16.63
19890;BME280;10107;51.198;6.824;2023-06-04T11:55:52;-22194.56;;;34.22;16.58
19890;BME280;10107;51.198;6.824;2023-06-04T11:59:53;-22193.56;;;34.18;16.19
19890;BME280;10107;51.198;6.824;2023-06-04T12:03:56;-22178.69;;;33.58;16.78
19890;BME280;10107;51.198;6.824;2023-06-04T12:08:04;-22173.63;;;33.38;16.53
19890;BME280;10107;51.198;6.824;2023-06-04T12:12:08;-22157.38;;;32.72;16.15
19890;BME280;10107;51.198;6.824;2023-06-04T12:16:13;-22128.97;;;31.57;17.25
19890;BME280;10107;51.198;6.824;2023-06-04T12:20:17;-22139.94;;;32.02;16.88
19890;BME280;10107;51.198;6.824;2023-06-04T12:24:19;-22140.44;;;32.04;17.28
19890;BME280;10107;51.198;6.824;2023-06-04T12:28:20;-22143.50;;;32.16;17.04
19890;BME280;10107;51.198;6.824;2023-06-04T12:32:22;-22154.94;;;32.62;18.35
19890;BME280;10107;51.198;6.824;2023-06-04T12:36:25;-22153.41;;;32.56;15.87
19890;BME280;10107;51.198;6.824;2023-06-04T12:40:26;-22143.09;;;32.14;16.77
19890;BME280;10107;51.198;6.824;2023-06-04T12:44:28;-22142.47;;;32.12;16.55
19890;BME280;10107;51.198;6.824;2023-06-04T12:48:31;-22137.00;;;31.90;17.37
19890;BME280;10107;51.198;6.824;2023-06-04T12:52:35;-22146.16;;;32.27;17.04
19890;BME280;10107;51.198;6.824;2023-06-04T12:56:36;-22141.06;;;32.06;16.56
19890;BME280;10107;51.198;6.824;2023-06-04T13:00:38;-22125.78;;;31.45;16.84
19890;BME280;10107;51.198;6.824;2023-06-04T13:04:40;-22118.63;;;31.16;17.43
19890;BME280;10107;51.198;6.824;2023-06-04T13:08:46;-22117.38;;;31.11;17.59
19890;BME280;10107;51.198;6.824;2023-06-04T13:12:47;-22120.94;;;31.25;17.62
19890;BME280;10107;51.198;6.824;2023-06-04T13:16:49;-22110.47;;;30.83;16.75
19890;BME280;10107;51.198;6.824;2023-06-04T13:20:51;-22102.69;;;30.52;18.24
19890;BME280;10107;51.198;6.824;2023-06-04T13:24:54;-22093.88;;;30.16;18.29
19890;BME280;10107;51.198;6.824;2023-06-04T13:28:56;-22104.84;;;30.60;18.56
19890;BME280;10107;51.198;6.824;2023-06-04T13:32:57;-22107.53;;;30.71;17.62
19890;BME280;10107;51.198;6.824;2023-06-04T13:36:59;-22105.63;;;30.64;18.32
19890;BME280;10107;51.198;6.824;2023-06-04T13:41:02;-22098.47;;;30.35;18.17
19890;BME280;10107;51.198;6.824;2023-06-04T13:45:05;-22096.66;;;30.28;18.00
19890;BME280;10107;51.198;6.824;2023-06-04T13:49:06;-22091.06;;;30.05;18.75
19890;BME280;10107;51.198;6.824;2023-06-04T13:53:09;-22083.00;;;29.73;18.88
19890;BME280;10107;51.198;6.824;2023-06-04T13:57:12;-22081.59;;;29.67;19.52
19890;BME280;10107;51.198;6.824;2023-06-04T14:01:14;-22077.09;;;29.49;19.10
19890;BME280;10107;51.198;6.824;2023-06-04T14:05:17;-22080.44;;;29.62;18.92
19890;BME280;10107;51.198;6.824;2023-06-04T14:09:18;-22073.38;;;29.34;19.57
19890;BME280;10107;51.198;6.824;2023-06-04T14:13:21;-22073.66;;;29.35;19.39
19890;BME280;10107;51.198;6.824;2023-06-04T14:17:23;-22070.56;;;29.23;20.14
19890;BME280;10107;51.198;6.824;2023-06-04T14:21:26;-22064.94;;;29.00;20.24
19890;BME280;10107;51.198;6.824;2023-06-04T14:25:27;-22066.59;;;29.07;20.18
19890;BME280;10107;51.198;6.824;2023-06-04T14:29:30;-22064.69;;;28.99;20.61
19890;BME280;10107;51.198;6.824;2023-06-04T14:33:32;-22066.59;;;29.07;20.50
19890;BME280;10107;51.198;6.824;2023-06-04T14:37:35;-22052.25;;;28.50;20.53
19890;BME280;10107;51.198;6.824;2023-06-04T14:41:37;-22052.09;;;28.49;21.39
19890;BME280;10107;51.198;6.824;2023-06-04T14:45:40;-22053.28;;;28.54;22.42
19890;BME280;10107;51.198;6.824;2023-06-04T14:49:42;-22047.63;;;28.31;21.16
19890;BME280;10107;51.198;6.824;2023-06-04T14:53:43;-22050.94;;;28.44;20.94
19890;BME280;10107;51.198;6.824;2023-06-04T14:57:45;-22047.09;;;28.29;21.51
19890;BME280;10107;51.198;6.824;2023-06-04T15:01:48;-22043.38;;;28.14;21.85
19890;BME280;10107;51.198;6.824;2023-06-04T15:05:50;-22043.63;;;28.15;21.65
19890;BME280;10107;51.198;6.824;2023-06-04T15:09:51;-22040.81;;;28.04;21.74
19890;BME280;10107;51.198;6.824;2023-06-04T15:13:53;-22038.00;;;27.93;21.81
19890;BME280;10107;51.198;6.824;2023-06-04T15:17:56;-22031.44;;;27.67;21.90
19890;BME280;10107;51.198;6.824;2023-06-04T15:21:58;-22030.28;;;27.62;21.93
19890;BME280;10107;51.198;6.824;2023-06-04T15:25:59;-22022.97;;;27.33;22.12
19890;BME280;10107;51.198;6.824;2023-06-04T15:30:02;-22017.81;;;27.12;22.66
19890;BME280;10107;51.198;6.824;2023-06-04T15:34:05;-22010.75;;;26.84;22.87
19890;BME280;10107;51.198;6.824;2023-06-04T15:38:07;-22013.44;;;26.95;23.04
19890;BME280;10107;51.198;6.824;2023-06-04T15:42:09;-22016.25;;;27.06;22.87
19890;BME280;10107;51.198;6.824;2023-06-04T15:46:12;-22009.56;;;26.79;22.49
19890;BME280;10107;51.198;6.824;2023-06-04T15:50:15;-22007.50;;;26.71;22.67
19890;BME280;10107;51.198;6.824;2023-06-04T15:54:16;-22002.63;;;26.52;22.69
19890;BME280;10107;51.198;6.824;2023-06-04T15:58:18;-21998.75;;;26.36;22.72
19890;BME280;10107;51.198;6.824;2023-06-04T16:02:20;-21998.38;;;26.35;22.62
19890;BME280;10107;51.198;6.824;2023-06-04T16:06:23;-22000.56;;;26.43;22.27
19890;BME280;10107;51.198;6.824;2023-06-04T16:10:25;-21996.97;;;26.29;22.23
19890;BME280;10107;51.198;6.824;2023-06-04T16:14:26;-21991.78;;;26.08;22.71
19890;BME280;10107;51.198;6.824;2023-06-04T16:18:28;-21988.31;;;25.95;22.30
19890;BME280;10107;51.198;6.824;2023-06-04T16:22:31;-21985.59;;;25.84;22.48
19890;BME280;10107;51.198;6.824;2023-06-04T16:26:33;-21981.09;;;25.66;22.61
19890;BME280;10107;51.198;6.824;2023-06-04T16:30:34;-21979.81;;;25.61;22.42
19890;BME280;10107;51.198;6.824;2023-06-04T16:34:36;-21977.09;;;25.50;22.42
19890;BME280;10107;51.198;6.824;2023-06-04T16:38:39;-21976.19;;;25.46;22.74
19890;BME280;10107;51.198;6.824;2023-06-04T16:42:41;-21974.91;;;25.41;23.11
19890;BME280;10107;51.198;6.824;2023-06-04T16:46:43;-21970.38;;;25.23;22.54
19890;BME280;10107;51.198;6.824;2023-06-04T16:50:44;-21964.56;;;25.00;23.34
19890;BME280;10107;51.198;6.824;2023-06-04T16:54:47;-21963.41;;;24.96;23.94
19890;BME280;10107;51.198;6.824;2023-06-04T16:58:49;-21960.44;;;24.84;24.14
19890;BME280;10107;51.198;6.824;2023-06-04T17:02:50;-21956.56;;;24.68;25.01
19890;BME280;10107;51.198;6.824;2023-06-04T17:06:52;-21956.44;;;24.68;24.93
19890;BME280;10107;51.198;6.824;2023-06-04T17:10:57;-21957.47;;;24.72;25.80
19890;BME280;10107;51.198;6.824;2023-06-04T17:14:59;-21953.97;;;24.58;25.89
19890;BME280;10107;51.198;6.824;2023-06-04T17:19:01;-21951.78;;;24.49;26.25
19890;BME280;10107;51.198;6.824;2023-06-04T17:23:02;-21950.59;;;24.45;26.22
19890;BME280;10107;51.198;6.824;2023-06-04T17:27:05;-21946.22;;;24.27;26.21
19890;BME280;10107;51.198;6.824;2023-06-04T17:31:08;-21941.44;;;24.08;26.69
19890;BME280;10107;51.198;6.824;2023-06-04T17:35:13;-21941.44;;;24.08;26.69
19890;BME280;10107;51.198;6.824;2023-06-04T17:39:15;-21938.72;;;23.98;27.01
19890;BME280;10107;51.198;6.824;2023-06-04T17:43:18;-21936.78;;;23.90;27.60
19890;BME280;10107;51.198;6.824;2023-06-04T17:47:20;-21932.38;;;23.72;27.79
19890;BME280;10107;51.198;6.824;2023-06-04T17:51:21;-21929.13;;;23.60;28.01
19890;BME280;10107;51.198;6.824;2023-06-04T17:55:23;-21927.19;;;23.52;28.31
19890;BME280;10107;51.198;6.824;2023-06-04T17:59:26;-21924.09;;;23.40;28.46
19890;BME280;10107;51.198;6.824;2023-06-04T18:03:28;-21924.34;;;23.41;28.44
19890;BME280;10107;51.198;6.824;2023-06-04T18:07:29;-21925.38;;;23.45;28.93
19890;BME280;10107;51.198;6.824;2023-06-04T18:11:31;-21923.94;;;23.39;28.64
19890;BME280;10107;51.198;6.824;2023-06-04T18:15:34;-21922.41;;;23.33;28.68
19890;BME280;10107;51.198;6.824;2023-06-04T18:19:36;-21921.34;;;23.29;28.96
19890;BME280;10107;51.198;6.824;2023-06-04T18:23:38;-21918.00;;;23.16;28.90
19890;BME280;10107;51.198;6.824;2023-06-04T18:27:39;-21914.09;;;23.00;29.35
19890;BME280;10107;51.198;6.824;2023-06-04T18:31:42;-21910.06;;;22.84;29.75
19890;BME280;10107;51.198;6.824;2023-06-04T18:35:44;-21906.72;;;22.71;29.79
19890;BME280;10107;51.198;6.824;2023-06-04T18:39:46;-21902.41;;;22.54;30.37
19890;BME280;10107;51.198;6.824;2023-06-04T18:43:48;-21898.78;;;22.40;30.78
19890;BME280;10107;51.198;6.824;2023-06-04T18:47:51;-21895.28;;;22.26;31.24
19890;BME280;10107;51.198;6.824;2023-06-04T18:51:52;-21891.50;;;22.11;31.35
19890;BME280;10107;51.198;6.824;2023-06-04T18:55:54;-21887.88;;;21.97;31.85
19890;BME280;10107;51.198;6.824;2023-06-04T18:59:57;-21884.50;;;21.83;32.07
19890;BME280;10107;51.198;6.824;2023-06-04T19:04:01;-21881.38;;;21.71;32.61
19890;BME280;10107;51.198;6.824;2023-06-04T19:08:03;-21878.91;;;21.61;32.85
19890;BME280;10107;51.198;6.824;2023-06-04T19:12:05;-21875.53;;;21.48;33.56
19890;BME280;10107;51.198;6.824;2023-06-04T19:16:10;-21871.25;;;21.31;33.27
19890;BME280;10107;51.198;6.824;2023-06-04T19:20:13;-21867.72;;;21.17;33.63
19890;BME280;10107;51.198;6.824;2023-06-04T19:24:17;-21865.50;;;21.08;34.43
19890;BME280;10107;51.198;6.824;2023-06-04T19:28:21;-21862.53;;;20.96;34.62
19890;BME280;10107;51.198;6.824;2023-06-04T19:32:22;-21859.41;;;20.84;35.13
19890;BME280;10107;51.198;6.824;2023-06-04T19:36:29;-21855.75;;;20.70;35.18
19890;BME280;10107;51.198;6.824;2023-06-04T19:40:31;-21852.38;;;20.56;35.89
19890;BME280;10107;51.198;6.824;2023-06-04T19:44:34;-21849.09;;;20.44;36.13
19890;BME280;10107;51.198;6.824;2023-06-04T19:48:35;-21846.25;;;20.32;36.75
19890;BME280;10107;51.198;6.824;2023-06-04T19:52:40;-21843.50;;;20.22;37.00
19890;BME280;10107;51.198;6.824;2023-06-04T19:56:41;-21839.72;;;20.07;37.85
19890;BME280;10107;51.198;6.824;2023-06-04T20:00:43;-21836.22;;;19.93;37.88
19890;BME280;10107;51.198;6.824;2023-06-04T20:04:46;-21832.81;;;19.80;38.72
19890;BME280;10107;51.198;6.824;2023-06-04T20:08:52;-21830.06;;;19.69;38.86
19890;BME280;10107;51.198;6.824;2023-06-04T20:12:54;-21828.13;;;19.61;39.44
19890;BME280;10107;51.198;6.824;2023-06-04T20:16:56;-21825.50;;;19.51;39.67
19890;BME280;10107;51.198;6.824;2023-06-04T20:20:58;-21823.81;;;19.44;39.67
19890;BME280;10107;51.198;6.824;2023-06-04T20:25:01;-21820.81;;;19.32;40.77
19890;BME280;10107;51.198;6.824;2023-06-04T20:29:03;-21817.16;;;19.18;41.09
19890;BME280;10107;51.198;6.824;2023-06-04T20:33:04;-21813.50;;;19.04;41.32
19890;BME280;10107;51.198;6.824;2023-06-04T20:37:06;-21810.75;;;18.93;41.89
19890;BME280;10107;51.198;6.824;2023-06-04T20:41:09;-21808.28;;;18.83;41.37
19890;BME280;10107;51.198;6.824;2023-06-04T20:45:11;-21806.31;;;18.75;42.19
19890;BME280;10107;51.198;6.824;2023-06-04T20:49:13;-21804.34;;;18.68;42.01
19890;BME280;10107;51.198;6.824;2023-06-04T20:53:14;-21802.13;;;18.59;42.53
19890;BME280;10107;51.198;6.824;2023-06-04T20:57:18;-21799.00;;;18.47;43.52
19890;BME280;10107;51.198;6.824;2023-06-04T21:01:22;-21795.59;;;18.33;43.64
19890;BME280;10107;51.198;6.824;2023-06-04T21:05:24;-21791.53;;;18.17;44.47
19890;BME280;10107;51.198;6.824;2023-06-04T21:09:26;-21787.50;;;18.01;45.31